Monte — V2FS2 — position and weather

sailwx.info

Track history (hours):
 
Tides and Currents Weather Stations Pressure Air Temp Water Temp Dewpoint Dewpoint Depression Visibility Wind Speed Wind Dir Waves Ship Positions

Monte

Last reported at 2016-Sep-28 02:29 UTC. Time now 2016-Sep-28 12:02 UTC.
Position N 42°20' W 010°08'.

Length 104 m; draft 3.5 m.

Type: Cargo ship. MMSI: 305777000.

Date/timePositionNaut miles runAvg speedWind from/ knotsBaromVisibWave heightAir tempDewpointWater temp
2016-Sep-28 02:29N 42°20' W 010°08'1010.2
2016-Sep-28 01:31N 42°30' W 010°08'  
2016-Sep-22 04:33N 38°42' W 009°50'8 8.1
2016-Sep-22 03:34N 38°38' W 009°41'29 9.4
2016-Sep-22 00:31N 38°40' W 009°05'0 0.0
2016-Sep-21 16:14N 38°40' W 009°04'0 0.0
2016-Sep-21 09:16N 38°40' W 009°04'0 0.0
2016-Sep-21 08:31N 38°40' W 009°04'0 0.0
2016-Sep-21 02:22N 38°40' W 009°04'0 0.0
2016-Sep-20 17:04N 38°40' W 009°04'0 0.0
2016-Sep-20 14:25N 38°40' W 009°04'0 0.0
2016-Sep-20 13:28N 38°40' W 009°04'0 0.0
2016-Sep-20 07:31N 38°40' W 009°04'0 0.0
2016-Sep-20 06:22N 38°40' W 009°04'0 0.0
2016-Sep-20 02:28N 38°40' W 009°04'0 0.0
2016-Sep-19 23:19N 38°40' W 009°04'0 0.0
2016-Sep-19 18:18N 38°40' W 009°04'0 0.0
2016-Sep-19 13:06N 38°40' W 009°04'0 0.0
2016-Sep-19 06:12N 38°40' W 009°04'0 0.0
2016-Sep-19 03:18N 38°40' W 009°04'0 0.0
2016-Sep-19 02:33N 38°40' W 009°04'2 1.0
2016-Sep-19 00:33N 38°41' W 009°07'28 5.6
2016-Sep-18 19:33N 38°36' W 009°42'27 6.8
2016-Sep-18 15:33N 38°54' W 010°08'10 9.4
2016-Sep-18 14:31N 39°04' W 010°08'  
Track history (hours):
 
Tides and Currents Weather Stations Pressure Air Temp Water Temp Dewpoint Dewpoint Depression Visibility Wind Speed Wind Dir Waves Ship Positions

Monte

Last reported at 2016-Sep-28 02:29 UTC. Time now 2016-Sep-28 12:02 UTC.
Position N 42°20' W 010°08'.

Length 104 m; draft 3.5 m.

Type: Cargo ship. MMSI: 305777000.

Date/timePositionNaut miles runAvg speedWind from/ knotsBaromVisibWave heightAir tempDewpointWater temp
2016-Sep-28 02:29N 42°20' W 010°08'1010.2
2016-Sep-28 01:31N 42°30' W 010°08'  
2016-Sep-22 04:33N 38°42' W 009°50'8 8.1
2016-Sep-22 03:34N 38°38' W 009°41'29 9.4
2016-Sep-22 00:31N 38°40' W 009°05'0 0.0
2016-Sep-21 16:14N 38°40' W 009°04'0 0.0
2016-Sep-21 09:16N 38°40' W 009°04'0 0.0
2016-Sep-21 08:31N 38°40' W 009°04'0 0.0
2016-Sep-21 02:22N 38°40' W 009°04'0 0.0
2016-Sep-20 17:04N 38°40' W 009°04'0 0.0
2016-Sep-20 14:25N 38°40' W 009°04'0 0.0
2016-Sep-20 13:28N 38°40' W 009°04'0 0.0
2016-Sep-20 07:31N 38°40' W 009°04'0 0.0
2016-Sep-20 06:22N 38°40' W 009°04'0 0.0
2016-Sep-20 02:28N 38°40' W 009°04'0 0.0
2016-Sep-19 23:19N 38°40' W 009°04'0 0.0
2016-Sep-19 18:18N 38°40' W 009°04'0 0.0
2016-Sep-19 13:06N 38°40' W 009°04'0 0.0
2016-Sep-19 06:12N 38°40' W 009°04'0 0.0
2016-Sep-19 03:18N 38°40' W 009°04'0 0.0
2016-Sep-19 02:33N 38°40' W 009°04'2 1.0
2016-Sep-19 00:33N 38°41' W 009°07'28 5.6
2016-Sep-18 19:33N 38°36' W 009°42'27 6.8
2016-Sep-18 15:33N 38°54' W 010°08'10 9.4
2016-Sep-18 14:31N 39°04' W 010°08'  

Dump ship's entire track history